sensor_id;sensor_type;location;lat;lon;timestamp;pressure;altitude;pressure_sealevel;temperature;humidity
36692;BME280;22678;52.052;4.242;2023-02-27T00:01:50;103053.63;;;4.03;62.88
36692;BME280;22678;52.052;4.242;2023-02-27T00:04:16;103061.59;;;4.07;62.87
36692;BME280;22678;52.052;4.242;2023-02-27T00:06:41;103053.56;;;4.02;62.76
36692;BME280;22678;52.052;4.242;2023-02-27T00:09:06;103054.34;;;4.01;63.11
36692;BME280;22678;52.052;4.242;2023-02-27T00:11:32;103052.56;;;4.00;63.19
36692;BME280;22678;52.052;4.242;2023-02-27T00:13:57;103062.88;;;3.98;63.05
36692;BME280;22678;52.052;4.242;2023-02-27T00:16:22;103058.56;;;3.99;63.02
36692;BME280;22678;52.052;4.242;2023-02-27T00:18:48;103046.53;;;3.84;62.97
36692;BME280;22678;52.052;4.242;2023-02-27T00:21:13;103058.97;;;3.90;62.47
36692;BME280;22678;52.052;4.242;2023-02-27T00:23:39;103059.78;;;3.89;62.43
36692;BME280;22678;52.052;4.242;2023-02-27T00:26:04;103062.22;;;3.86;62.90
36692;BME280;22678;52.052;4.242;2023-02-27T00:28:29;103061.31;;;3.85;62.73
36692;BME280;22678;52.052;4.242;2023-02-27T00:30:55;103040.72;;;3.74;62.31
36692;BME280;22678;52.052;4.242;2023-02-27T00:33:20;103054.72;;;3.76;62.33
36692;BME280;22678;52.052;4.242;2023-02-27T00:35:54;103049.34;;;3.73;62.33
36692;BME280;22678;52.052;4.242;2023-02-27T00:38:20;103042.00;;;3.65;62.51
36692;BME280;22678;52.052;4.242;2023-02-27T00:40:45;103044.44;;;3.62;62.60
36692;BME280;22678;52.052;4.242;2023-02-27T00:43:11;103045.97;;;3.59;62.28
36692;BME280;22678;52.052;4.242;2023-02-27T00:45:36;103042.94;;;3.51;62.58
36692;BME280;22678;52.052;4.242;2023-02-27T00:48:01;103052.78;;;3.57;62.36
36692;BME280;22678;52.052;4.242;2023-02-27T00:50:26;103046.34;;;3.50;62.46
36692;BME280;22678;52.052;4.242;2023-02-27T00:52:52;103053.34;;;3.51;62.75
36692;BME280;22678;52.052;4.242;2023-02-27T00:55:17;103047.78;;;3.45;62.27
36692;BME280;22678;52.052;4.242;2023-02-27T00:57:42;103054.59;;;3.43;62.39
36692;BME280;22678;52.052;4.242;2023-02-27T01:00:09;103062.31;;;3.41;62.61
36692;BME280;22678;52.052;4.242;2023-02-27T01:02:34;103043.34;;;3.27;62.44
36692;BME280;22678;52.052;4.242;2023-02-27T01:05:00;103053.91;;;3.30;62.53
36692;BME280;22678;52.052;4.242;2023-02-27T01:07:25;103048.72;;;3.30;62.39
36692;BME280;22678;52.052;4.242;2023-02-27T01:09:50;103057.31;;;3.29;62.68
36692;BME280;22678;52.052;4.242;2023-02-27T01:12:16;103057.13;;;3.26;62.60
36692;BME280;22678;52.052;4.242;2023-02-27T01:14:41;103051.78;;;3.23;62.43
36692;BME280;22678;52.052;4.242;2023-02-27T01:17:08;103056.25;;;3.26;62.29
36692;BME280;22678;52.052;4.242;2023-02-27T01:19:33;103047.81;;;3.15;62.47
36692;BME280;22678;52.052;4.242;2023-02-27T01:21:59;103060.28;;;3.21;62.43
36692;BME280;22678;52.052;4.242;2023-02-27T01:24:24;103052.13;;;3.14;62.58
36692;BME280;22678;52.052;4.242;2023-02-27T01:26:50;103056.44;;;3.14;62.67
36692;BME280;22678;52.052;4.242;2023-02-27T01:29:17;103056.44;;;3.14;62.77
36692;BME280;22678;52.052;4.242;2023-02-27T01:31:42;103046.66;;;3.10;62.96
36692;BME280;22678;52.052;4.242;2023-02-27T01:34:07;103052.75;;;3.10;62.56
36692;BME280;22678;52.052;4.242;2023-02-27T01:36:33;103055.19;;;3.07;62.56
36692;BME280;22678;52.052;4.242;2023-02-27T01:38:58;103040.94;;;3.01;62.55
36692;BME280;22678;52.052;4.242;2023-02-27T01:41:24;103047.13;;;3.03;62.80
36692;BME280;22678;52.052;4.242;2023-02-27T01:43:54;103052.06;;;2.98;62.71
36692;BME280;22678;52.052;4.242;2023-02-27T01:46:20;103044.25;;;2.98;62.63
36692;BME280;22678;52.052;4.242;2023-02-27T01:48:46;103038.78;;;2.93;62.76
36692;BME280;22678;52.052;4.242;2023-02-27T01:51:16;103041.38;;;2.93;62.54
36692;BME280;22678;52.052;4.242;2023-02-27T01:53:44;103053.56;;;2.94;62.99
36692;BME280;22678;52.052;4.242;2023-02-27T01:56:14;103050.16;;;2.95;62.78
36692;BME280;22678;52.052;4.242;2023-02-27T01:58:41;103046.41;;;2.90;62.61
36692;BME280;22678;52.052;4.242;2023-02-27T02:01:07;103040.38;;;2.91;62.86
36692;BME280;22678;52.052;4.242;2023-02-27T02:03:38;103041.03;;;2.87;63.05
36692;BME280;22678;52.052;4.242;2023-02-27T02:06:06;103038.13;;;2.83;62.85
36692;BME280;22678;52.052;4.242;2023-02-27T02:08:37;103051.22;;;2.84;63.06
36692;BME280;22678;52.052;4.242;2023-02-27T02:11:04;103033.28;;;2.74;63.18
36692;BME280;22678;52.052;4.242;2023-02-27T02:13:31;103056.25;;;2.81;63.17
36692;BME280;22678;52.052;4.242;2023-02-27T02:16:27;103031.16;;;2.67;63.28
36692;BME280;22678;52.052;4.242;2023-02-27T02:19:05;103052.59;;;2.77;63.49
36692;BME280;22678;52.052;4.242;2023-02-27T02:44:02;103046.00;;;2.54;64.34
36692;BME280;22678;52.052;4.242;2023-02-27T02:46:44;103046.81;;;2.53;64.57
36692;BME280;22678;52.052;4.242;2023-02-27T02:52:02;103039.91;;;2.39;64.79
36692;BME280;22678;52.052;4.242;2023-02-27T02:54:43;103052.06;;;2.40;64.64
36692;BME280;22678;52.052;4.242;2023-02-27T02:57:20;103062.25;;;2.37;64.71
36692;BME280;22678;52.052;4.242;2023-02-27T03:00:02;103054.88;;;2.30;64.90
36692;BME280;22678;52.052;4.242;2023-02-27T03:02:34;103038.56;;;2.17;64.63
36692;BME280;22678;52.052;4.242;2023-02-27T03:05:06;103046.38;;;2.17;65.06
36692;BME280;22678;52.052;4.242;2023-02-27T03:07:39;103056.22;;;2.23;64.97
36692;BME280;22678;52.052;4.242;2023-02-27T03:10:16;103066.34;;;2.18;65.04
36692;BME280;22678;52.052;4.242;2023-02-27T03:12:56;103064.34;;;2.14;65.00
36692;BME280;22678;52.052;4.242;2023-02-27T03:15:27;103065.75;;;2.09;65.05
36692;BME280;22678;52.052;4.242;2023-02-27T03:18:07;103058.41;;;2.02;64.87
36692;BME280;22678;52.052;4.242;2023-02-27T03:20:43;103054.41;;;1.93;65.41
36692;BME280;22678;52.052;4.242;2023-02-27T03:23:15;103063.19;;;1.96;65.14
36692;BME280;22678;52.052;4.242;2023-02-27T03:25:43;103066.41;;;1.91;65.53
36692;BME280;22678;52.052;4.242;2023-02-27T03:28:14;103070.50;;;1.88;65.65
36692;BME280;22678;52.052;4.242;2023-02-27T03:31:16;103076.19;;;1.82;65.44
36692;BME280;22678;52.052;4.242;2023-02-27T03:33:54;103077.78;;;1.80;65.78
36692;BME280;22678;52.052;4.242;2023-02-27T03:36:30;103076.59;;;1.75;65.72
36692;BME280;22678;52.052;4.242;2023-02-27T03:41:53;103068.22;;;1.66;65.76
36692;BME280;22678;52.052;4.242;2023-02-27T03:44:43;103078.41;;;1.63;66.01
36692;BME280;22678;52.052;4.242;2023-02-27T03:47:13;103070.44;;;1.60;65.95
36692;BME280;22678;52.052;4.242;2023-02-27T03:49:38;103068.25;;;1.52;65.93
36692;BME280;22678;52.052;4.242;2023-02-27T03:52:03;103074.41;;;1.54;66.12
36692;BME280;22678;52.052;4.242;2023-02-27T03:54:33;103076.81;;;1.51;65.97
36692;BME280;22678;52.052;4.242;2023-02-27T03:57:02;103063.66;;;1.48;65.95
36692;BME280;22678;52.052;4.242;2023-02-27T03:59:30;103064.25;;;1.44;66.17
36692;BME280;22678;52.052;4.242;2023-02-27T04:01:56;103066.84;;;1.44;66.30
36692;BME280;22678;52.052;4.242;2023-02-27T04:04:27;103062.19;;;1.38;66.30
36692;BME280;22678;52.052;4.242;2023-02-27T04:07:04;103065.56;;;1.37;66.24
36692;BME280;22678;52.052;4.242;2023-02-27T04:13:51;103064.25;;;1.31;66.51
36692;BME280;22678;52.052;4.242;2023-02-27T04:24:36;103080.59;;;1.16;66.79
36692;BME280;22678;52.052;4.242;2023-02-27T04:29:47;103085.34;;;1.10;67.01
36692;BME280;22678;52.052;4.242;2023-02-27T04:32:34;103076.00;;;0.99;66.98
36692;BME280;22678;52.052;4.242;2023-02-27T04:35:13;103076.97;;;1.01;66.93
36692;BME280;22678;52.052;4.242;2023-02-27T04:40:09;103089.03;;;1.00;67.28
36692;BME280;22678;52.052;4.242;2023-02-27T04:42:45;103086.94;;;0.95;67.25
36692;BME280;22678;52.052;4.242;2023-02-27T04:45:15;103094.72;;;0.95;67.28
36692;BME280;22678;52.052;4.242;2023-02-27T04:47:46;103085.50;;;0.86;67.50
36692;BME280;22678;52.052;4.242;2023-02-27T04:50:16;103094.31;;;0.89;67.31
36692;BME280;22678;52.052;4.242;2023-02-27T04:52:50;103087.78;;;0.82;67.58
36692;BME280;22678;52.052;4.242;2023-02-27T04:55:21;103101.88;;;0.85;67.48
36692;BME280;22678;52.052;4.242;2023-02-27T04:57:57;103095.47;;;0.80;67.83
36692;BME280;22678;52.052;4.242;2023-02-27T05:00:25;103088.06;;;0.73;67.53
36692;BME280;22678;52.052;4.242;2023-02-27T05:02:55;103084.16;;;0.66;67.80
36692;BME280;22678;52.052;4.242;2023-02-27T05:05:29;103095.94;;;0.75;68.35
36692;BME280;22678;52.052;4.242;2023-02-27T05:08:03;103116.06;;;0.79;68.46
36692;BME280;22678;52.052;4.242;2023-02-27T05:10:57;103113.38;;;0.77;68.15
36692;BME280;22678;52.052;4.242;2023-02-27T05:13:25;103110.69;;;0.76;68.58
36692;BME280;22678;52.052;4.242;2023-02-27T05:15:57;103112.16;;;0.72;68.30
36692;BME280;22678;52.052;4.242;2023-02-27T05:18:24;103104.53;;;0.62;68.24
36692;BME280;22678;52.052;4.242;2023-02-27T05:21:14;103111.75;;;0.66;68.38
36692;BME280;22678;52.052;4.242;2023-02-27T05:26:43;103114.00;;;0.61;68.64
36692;BME280;22678;52.052;4.242;2023-02-27T05:32:13;103113.50;;;0.54;68.70
36692;BME280;22678;52.052;4.242;2023-02-27T05:34:46;103117.66;;;0.51;68.46
36692;BME280;22678;52.052;4.242;2023-02-27T05:40:14;103116.34;;;0.45;68.82
36692;BME280;22678;52.052;4.242;2023-02-27T05:42:45;103115.44;;;0.44;69.19
36692;BME280;22678;52.052;4.242;2023-02-27T05:45:22;103109.81;;;0.38;69.02
36692;BME280;22678;52.052;4.242;2023-02-27T05:47:57;103116.81;;;0.39;68.96
36692;BME280;22678;52.052;4.242;2023-02-27T05:50:29;103112.91;;;0.32;69.20
36692;BME280;22678;52.052;4.242;2023-02-27T05:52:59;103118.97;;;0.33;69.35
36692;BME280;22678;52.052;4.242;2023-02-27T05:55:31;103119.75;;;0.32;69.41
36692;BME280;22678;52.052;4.242;2023-02-27T06:01:03;103128.28;;;0.31;69.17
36692;BME280;22678;52.052;4.242;2023-02-27T06:03:31;103120.09;;;0.25;69.28
36692;BME280;22678;52.052;4.242;2023-02-27T06:05:59;103136.06;;;0.31;69.83
36692;BME280;22678;52.052;4.242;2023-02-27T06:08:25;103133.47;;;0.31;69.87
36692;BME280;22678;52.052;4.242;2023-02-27T06:10:50;103138.66;;;0.31;70.28
36692;BME280;22678;52.052;4.242;2023-02-27T06:13:16;103128.91;;;0.27;70.22
36692;BME280;22678;52.052;4.242;2023-02-27T06:15:45;103130.13;;;0.20;69.80
36692;BME280;22678;52.052;4.242;2023-02-27T06:18:11;103145.41;;;0.29;69.97
36692;BME280;22678;52.052;4.242;2023-02-27T06:20:38;103146.78;;;0.24;70.25
36692;BME280;22678;52.052;4.242;2023-02-27T06:23:03;103146.78;;;0.24;70.41
36692;BME280;22678;52.052;4.242;2023-02-27T06:25:29;103132.41;;;0.15;70.60
36692;BME280;22678;52.052;4.242;2023-02-27T06:27:54;103149.94;;;0.20;70.46
36692;BME280;22678;52.052;4.242;2023-02-27T06:30:20;103139.16;;;0.13;70.50
36692;BME280;22678;52.052;4.242;2023-02-27T06:32:45;103134.00;;;0.13;70.91
36692;BME280;22678;52.052;4.242;2023-02-27T06:35:11;103143.53;;;0.14;70.74
36692;BME280;22678;52.052;4.242;2023-02-27T06:37:36;103159.63;;;0.22;70.58
36692;BME280;22678;52.052;4.242;2023-02-27T06:40:02;103158.28;;;0.15;71.02
36692;BME280;22678;52.052;4.242;2023-02-27T06:42:30;103162.78;;;0.18;71.08
36692;BME280;22678;52.052;4.242;2023-02-27T06:44:55;103156.47;;;0.14;71.00
36692;BME280;22678;52.052;4.242;2023-02-27T06:47:20;103149.06;;;0.07;71.04
36692;BME280;22678;52.052;4.242;2023-02-27T06:49:46;103160.75;;;0.14;71.39
36692;BME280;22678;52.052;4.242;2023-02-27T06:52:11;103161.31;;;0.10;71.27
36692;BME280;22678;52.052;4.242;2023-02-27T06:54:36;103165.72;;;0.11;71.80
36692;BME280;22678;52.052;4.242;2023-02-27T06:57:02;103171.78;;;0.11;71.60
36692;BME280;22678;52.052;4.242;2023-02-27T06:59:28;103184.38;;;0.19;71.79
36692;BME280;22678;52.052;4.242;2023-02-27T07:01:53;103169.75;;;0.07;71.61
36692;BME280;22678;52.052;4.242;2023-02-27T07:04:18;103162.38;;;0.00;71.59
36692;BME280;22678;52.052;4.242;2023-02-27T07:06:44;103193.84;;;0.18;71.94
36692;BME280;22678;52.052;4.242;2023-02-27T07:09:09;103192.03;;;0.17;71.82
36692;BME280;22678;52.052;4.242;2023-02-27T07:11:34;103196.31;;;0.16;71.95
36692;BME280;22678;52.052;4.242;2023-02-27T07:14:00;103190.00;;;0.13;71.92
36692;BME280;22678;52.052;4.242;2023-02-27T07:16:25;103197.31;;;0.19;72.06
36692;BME280;22678;52.052;4.242;2023-02-27T07:18:51;103190.22;;;0.16;72.02
36692;BME280;22678;52.052;4.242;2023-02-27T07:21:16;103195.50;;;0.17;72.08
36692;BME280;22678;52.052;4.242;2023-02-27T07:23:41;103181.34;;;0.12;72.25
36692;BME280;22678;52.052;4.242;2023-02-27T07:26:07;103205.97;;;0.19;72.78
36692;BME280;22678;52.052;4.242;2023-02-27T07:28:32;103198.78;;;0.27;72.65
36692;BME280;22678;52.052;4.242;2023-02-27T07:30:58;103199.41;;;0.36;72.65
36692;BME280;22678;52.052;4.242;2023-02-27T07:33:23;103210.63;;;0.48;72.78
36692;BME280;22678;52.052;4.242;2023-02-27T07:35:49;103207.13;;;0.60;72.98
36692;BME280;22678;52.052;4.242;2023-02-27T07:38:15;103203.63;;;0.71;73.11
36692;BME280;22678;52.052;4.242;2023-02-27T07:40:40;103197.72;;;0.85;73.01
36692;BME280;22678;52.052;4.242;2023-02-27T07:43:06;103213.47;;;1.14;73.43
36692;BME280;22678;52.052;4.242;2023-02-27T07:45:31;103199.88;;;1.30;72.93
36692;BME280;22678;52.052;4.242;2023-02-27T07:47:57;103196.75;;;1.35;72.61
36692;BME280;22678;52.052;4.242;2023-02-27T07:50:22;103212.41;;;1.37;72.18
36692;BME280;22678;52.052;4.242;2023-02-27T07:52:47;103214.41;;;1.28;72.55
36692;BME280;22678;52.052;4.242;2023-02-27T07:55:13;103207.00;;;1.20;72.71
36692;BME280;22678;52.052;4.242;2023-02-27T07:57:38;103204.56;;;1.10;73.18
36692;BME280;22678;52.052;4.242;2023-02-27T08:00:05;103209.00;;;1.25;73.47
36692;BME280;22678;52.052;4.242;2023-02-27T08:02:31;103206.81;;;1.31;73.25
36692;BME280;22678;52.052;4.242;2023-02-27T08:04:57;103196.69;;;1.47;73.10
36692;BME280;22678;52.052;4.242;2023-02-27T08:07:23;103184.25;;;1.55;73.06
36692;BME280;22678;52.052;4.242;2023-02-27T08:09:48;103192.94;;;1.82;73.17
36692;BME280;22678;52.052;4.242;2023-02-27T08:12:13;103193.34;;;2.02;72.79
36692;BME280;22678;52.052;4.242;2023-02-27T08:14:39;103195.81;;;2.40;72.56
36692;BME280;22678;52.052;4.242;2023-02-27T08:17:04;103202.41;;;2.77;71.45
36692;BME280;22678;52.052;4.242;2023-02-27T08:19:29;103215.72;;;2.96;71.56
36692;BME280;22678;52.052;4.242;2023-02-27T08:21:55;103200.41;;;3.01;71.17
36692;BME280;22678;52.052;4.242;2023-02-27T08:24:20;103207.63;;;3.35;70.47
36692;BME280;22678;52.052;4.242;2023-02-27T08:26:45;103201.63;;;3.51;70.10
36692;BME280;22678;52.052;4.242;2023-02-27T08:29:11;103200.66;;;3.64;69.50
36692;BME280;22678;52.052;4.242;2023-02-27T08:31:36;103198.13;;;3.65;69.59
36692;BME280;22678;52.052;4.242;2023-02-27T08:34:01;103201.25;;;3.75;69.12
36692;BME280;22678;52.052;4.242;2023-02-27T08:36:27;103203.06;;;3.76;68.75
36692;BME280;22678;52.052;4.242;2023-02-27T08:38:52;103212.38;;;3.87;67.78
36692;BME280;22678;52.052;4.242;2023-02-27T08:41:17;103219.00;;;3.97;67.81
36692;BME280;22678;52.052;4.242;2023-02-27T08:43:43;103205.44;;;4.02;67.29
36692;BME280;22678;52.052;4.242;2023-02-27T08:46:08;103214.56;;;4.11;66.92
36692;BME280;22678;52.052;4.242;2023-02-27T08:48:33;103217.97;;;4.25;66.35
36692;BME280;22678;52.052;4.242;2023-02-27T08:50:59;103224.59;;;4.34;65.68
36692;BME280;22678;52.052;4.242;2023-02-27T08:53:24;103228.84;;;4.49;65.16
36692;BME280;22678;52.052;4.242;2023-02-27T08:55:50;103208.06;;;4.50;64.72
36692;BME280;22678;52.052;4.242;2023-02-27T08:58:16;103220.16;;;4.65;63.59
36692;BME280;22678;52.052;4.242;2023-02-27T09:00:42;103226.63;;;4.71;62.80
36692;BME280;22678;52.052;4.242;2023-02-27T09:03:07;103226.44;;;4.68;62.71
36692;BME280;22678;52.052;4.242;2023-02-27T09:05:32;103234.09;;;4.65;62.31
36692;BME280;22678;52.052;4.242;2023-02-27T09:08:00;103222.03;;;4.51;62.11
36692;BME280;22678;52.052;4.242;2023-02-27T09:10:25;103235.84;;;4.50;62.35
36692;BME280;22678;52.052;4.242;2023-02-27T09:12:51;103230.22;;;4.42;61.92
36692;BME280;22678;52.052;4.242;2023-02-27T09:15:16;103231.28;;;4.46;61.77
36692;BME280;22678;52.052;4.242;2023-02-27T09:17:42;103240.13;;;4.64;61.39
36692;BME280;22678;52.052;4.242;2023-02-27T09:20:08;103221.41;;;4.88;59.74
36692;BME280;22678;52.052;4.242;2023-02-27T09:22:34;103239.34;;;5.15;59.41
36692;BME280;22678;52.052;4.242;2023-02-27T09:24:59;103222.94;;;5.34;58.89
36692;BME280;22678;52.052;4.242;2023-02-27T09:27:25;103222.88;;;5.50;57.50
36692;BME280;22678;52.052;4.242;2023-02-27T09:29:51;103235.00;;;5.66;57.09
36692;BME280;22678;52.052;4.242;2023-02-27T09:32:24;103210.03;;;5.71;56.69
36692;BME280;22678;52.052;4.242;2023-02-27T09:34:50;103215.28;;;5.89;55.69
36692;BME280;22678;52.052;4.242;2023-02-27T09:37:16;103226.63;;;6.08;55.20
36692;BME280;22678;52.052;4.242;2023-02-27T09:39:43;103238.13;;;6.29;54.94
36692;BME280;22678;52.052;4.242;2023-02-27T09:42:18;103240.59;;;6.44;54.87
36692;BME280;22678;52.052;4.242;2023-02-27T09:44:50;103232.75;;;6.64;54.27
36692;BME280;22678;52.052;4.242;2023-02-27T09:47:26;103233.50;;;6.79;53.98
36692;BME280;22678;52.052;4.242;2023-02-27T09:52:24;103219.22;;;6.73;53.32
36692;BME280;22678;52.052;4.242;2023-02-27T09:54:50;103229.75;;;6.74;53.55
36692;BME280;22678;52.052;4.242;2023-02-27T10:00:12;103241.34;;;6.99;53.64
36692;BME280;22678;52.052;4.242;2023-02-27T10:06:15;103235.97;;;6.96;53.40
36692;BME280;22678;52.052;4.242;2023-02-27T10:09:20;103254.00;;;7.09;53.37
36692;BME280;22678;52.052;4.242;2023-02-27T10:16:57;103246.03;;;7.06;53.33
36692;BME280;22678;52.052;4.242;2023-02-27T10:19:26;103253.75;;;7.03;53.28
36692;BME280;22678;52.052;4.242;2023-02-27T10:21:55;103238.59;;;6.96;54.03
36692;BME280;22678;52.052;4.242;2023-02-27T10:24:38;103247.81;;;7.27;54.41
36692;BME280;22678;52.052;4.242;2023-02-27T10:27:05;103225.75;;;7.41;54.13
36692;BME280;22678;52.052;4.242;2023-02-27T10:29:36;103230.25;;;7.65;53.87
36692;BME280;22678;52.052;4.242;2023-02-27T10:32:17;103232.78;;;7.84;53.80
36692;BME280;22678;52.052;4.242;2023-02-27T10:34:49;103227.44;;;7.81;53.49
36692;BME280;22678;52.052;4.242;2023-02-27T10:37:17;103237.13;;;8.05;53.36
36692;BME280;22678;52.052;4.242;2023-02-27T10:39:52;103236.19;;;8.25;53.18
36692;BME280;22678;52.052;4.242;2023-02-27T10:42:18;103235.28;;;8.46;52.96
36692;BME280;22678;52.052;4.242;2023-02-27T10:44:43;103235.91;;;8.62;52.65
36692;BME280;22678;52.052;4.242;2023-02-27T10:47:13;103247.38;;;8.88;52.18
36692;BME280;22678;52.052;4.242;2023-02-27T10:49:40;103214.47;;;8.98;51.12
36692;BME280;22678;52.052;4.242;2023-02-27T10:52:12;103237.81;;;9.14;50.57
36692;BME280;22678;52.052;4.242;2023-02-27T10:54:38;103232.81;;;9.20;50.11
36692;BME280;22678;52.052;4.242;2023-02-27T10:57:34;103234.78;;;9.27;50.11
36692;BME280;22678;52.052;4.242;2023-02-27T11:00:06;103220.72;;;9.25;49.36
36692;BME280;22678;52.052;4.242;2023-02-27T11:02:38;103228.25;;;9.15;49.39
36692;BME280;22678;52.052;4.242;2023-02-27T11:05:15;103224.31;;;8.79;49.73
36692;BME280;22678;52.052;4.242;2023-02-27T11:07:43;103221.97;;;8.41;50.12
36692;BME280;22678;52.052;4.242;2023-02-27T11:10:23;103231.38;;;8.14;50.78
36692;BME280;22678;52.052;4.242;2023-02-27T11:12:57;103215.38;;;7.85;50.93
36692;BME280;22678;52.052;4.242;2023-02-27T11:15:27;103223.22;;;7.64;51.41
36692;BME280;22678;52.052;4.242;2023-02-27T11:17:52;103225.19;;;7.48;51.48
36692;BME280;22678;52.052;4.242;2023-02-27T11:23:05;103205.59;;;8.24;51.44
36692;BME280;22678;52.052;4.242;2023-02-27T11:25:31;103210.00;;;8.71;50.65
36692;BME280;22678;52.052;4.242;2023-02-27T11:31:01;103185.31;;;9.14;47.76
36692;BME280;22678;52.052;4.242;2023-02-27T11:33:30;103200.03;;;9.35;45.51
36692;BME280;22678;52.052;4.242;2023-02-27T11:35:57;103191.22;;;9.33;45.58
36692;BME280;22678;52.052;4.242;2023-02-27T11:38:26;103185.19;;;9.35;45.66
36692;BME280;22678;52.052;4.242;2023-02-27T11:40:55;103191.78;;;9.24;45.11
36692;BME280;22678;52.052;4.242;2023-02-27T11:43:24;103183.34;;;9.07;45.36
36692;BME280;22678;52.052;4.242;2023-02-27T11:45:59;103171.72;;;9.00;44.01
36692;BME280;22678;52.052;4.242;2023-02-27T11:48:31;103170.28;;;8.84;44.17
36692;BME280;22678;52.052;4.242;2023-02-27T11:54:17;103186.38;;;8.47;43.72
36692;BME280;22678;52.052;4.242;2023-02-27T11:56:55;103188.38;;;8.31;44.17
36692;BME280;22678;52.052;4.242;2023-02-27T11:59:59;103180.28;;;8.25;44.20
36692;BME280;22678;52.052;4.242;2023-02-27T12:02:36;103172.94;;;8.16;43.91
36692;BME280;22678;52.052;4.242;2023-02-27T12:05:16;103169.50;;;8.17;44.27
36692;BME280;22678;52.052;4.242;2023-02-27T12:10:47;103184.41;;;8.20;43.77
36692;BME280;22678;52.052;4.242;2023-02-27T12:13:17;103163.50;;;8.21;43.14
36692;BME280;22678;52.052;4.242;2023-02-27T12:15:47;103153.50;;;8.56;43.46
36692;BME280;22678;52.052;4.242;2023-02-27T12:18:22;103156.53;;;8.91;42.53
36692;BME280;22678;52.052;4.242;2023-02-27T12:20:58;103167.81;;;9.13;42.40
36692;BME280;22678;52.052;4.242;2023-02-27T12:26:32;103155.19;;;9.54;41.71
36692;BME280;22678;52.052;4.242;2023-02-27T12:29:15;103156.09;;;9.82;41.30
36692;BME280;22678;52.052;4.242;2023-02-27T12:31:49;103158.38;;;9.98;41.30
36692;BME280;22678;52.052;4.242;2023-02-27T12:34:43;103151.97;;;10.19;41.38
36692;BME280;22678;52.052;4.242;2023-02-27T12:37:13;103143.81;;;10.39;39.08
36692;BME280;22678;52.052;4.242;2023-02-27T12:39:41;103141.59;;;10.52;39.42
36692;BME280;22678;52.052;4.242;2023-02-27T12:50:02;103142.69;;;10.32;38.60
36692;BME280;22678;52.052;4.242;2023-02-27T12:55:30;103147.25;;;10.07;39.32
36692;BME280;22678;52.052;4.242;2023-02-27T13:00:45;103147.03;;;9.46;40.11
36692;BME280;22678;52.052;4.242;2023-02-27T13:03:16;103140.91;;;9.46;40.67
36692;BME280;22678;52.052;4.242;2023-02-27T13:05:52;103138.94;;;9.66;40.85
36692;BME280;22678;52.052;4.242;2023-02-27T13:11:16;103136.63;;;10.04;40.28
36692;BME280;22678;52.052;4.242;2023-02-27T13:13:56;103132.84;;;10.23;40.19
36692;BME280;22678;52.052;4.242;2023-02-27T13:16:32;103130.63;;;10.37;39.97
36692;BME280;22678;52.052;4.242;2023-02-27T13:24:28;103146.41;;;10.10;39.12
36692;BME280;22678;52.052;4.242;2023-02-27T13:29:38;103131.06;;;9.66;38.75
36692;BME280;22678;52.052;4.242;2023-02-27T13:32:21;103130.19;;;9.67;39.25
36692;BME280;22678;52.052;4.242;2023-02-27T13:35:40;103117.94;;;9.66;38.88
36692;BME280;22678;52.052;4.242;2023-02-27T13:37:51;103129.59;;;9.76;38.34
36692;BME280;22678;52.052;4.242;2023-02-27T13:40:32;103129.81;;;9.82;38.56
36692;BME280;22678;52.052;4.242;2023-02-27T13:43:03;103124.75;;;9.88;38.44
36692;BME280;22678;52.052;4.242;2023-02-27T13:45:50;103143.97;;;9.87;38.10
36692;BME280;22678;52.052;4.242;2023-02-27T13:57:18;103135.94;;;9.55;38.15
36692;BME280;22678;52.052;4.242;2023-02-27T13:59:57;103123.56;;;9.51;38.89
36692;BME280;22678;52.052;4.242;2023-02-27T14:02:30;103141.44;;;9.61;38.97
36692;BME280;22678;52.052;4.242;2023-02-27T14:04:58;103121.34;;;9.63;38.94
36692;BME280;22678;52.052;4.242;2023-02-27T14:07:27;103133.00;;;9.72;38.92
36692;BME280;22678;52.052;4.242;2023-02-27T14:10:07;103124.44;;;9.79;38.84
36692;BME280;22678;52.052;4.242;2023-02-27T14:12:39;103126.69;;;9.94;38.26
36692;BME280;22678;52.052;4.242;2023-02-27T14:15:47;103133.19;;;10.07;37.80
36692;BME280;22678;52.052;4.242;2023-02-27T14:18:47;103132.53;;;10.14;37.73
36692;BME280;22678;52.052;4.242;2023-02-27T14:24:21;103137.81;;;10.43;37.04
36692;BME280;22678;52.052;4.242;2023-02-27T14:26:48;103147.09;;;10.31;37.38
36692;BME280;22678;52.052;4.242;2023-02-27T14:29:19;103136.22;;;10.19;37.41
36692;BME280;22678;52.052;4.242;2023-02-27T14:31:45;103148.00;;;10.03;37.96
36692;BME280;22678;52.052;4.242;2023-02-27T14:34:14;103129.81;;;9.82;38.36
36692;BME280;22678;52.052;4.242;2023-02-27T14:36:44;103113.59;;;9.68;38.48
36692;BME280;22678;52.052;4.242;2023-02-27T14:39:24;103132.50;;;9.84;38.65
36692;BME280;22678;52.052;4.242;2023-02-27T14:44:50;103136.84;;;9.83;38.93
36692;BME280;22678;52.052;4.242;2023-02-27T14:47:25;103130.16;;;9.65;38.99
36692;BME280;22678;52.052;4.242;2023-02-27T14:49:51;103125.16;;;9.46;39.62
36692;BME280;22678;52.052;4.242;2023-02-27T14:52:21;103123.94;;;9.36;40.19
36692;BME280;22678;52.052;4.242;2023-02-27T14:54:47;103128.31;;;9.36;40.44
36692;BME280;22678;52.052;4.242;2023-02-27T14:57:16;103126.84;;;9.44;40.28
36692;BME280;22678;52.052;4.242;2023-02-27T14:59:45;103127.03;;;9.50;40.51
36692;BME280;22678;52.052;4.242;2023-02-27T15:02:31;103123.69;;;9.54;40.78
36692;BME280;22678;52.052;4.242;2023-02-27T15:07:28;103119.69;;;9.94;40.68
36692;BME280;22678;52.052;4.242;2023-02-27T15:09:58;103121.56;;;9.98;40.67
36692;BME280;22678;52.052;4.242;2023-02-27T15:12:25;103129.25;;;9.92;40.79
36692;BME280;22678;52.052;4.242;2023-02-27T15:14:54;103103.22;;;9.73;40.94
36692;BME280;22678;52.052;4.242;2023-02-27T15:17:27;103120.19;;;9.55;41.39
36692;BME280;22678;52.052;4.242;2023-02-27T15:19:56;103120.38;;;9.34;41.44
36692;BME280;22678;52.052;4.242;2023-02-27T15:22:27;103119.06;;;9.21;41.80
36692;BME280;22678;52.052;4.242;2023-02-27T15:24:56;103123.69;;;9.03;41.87